LiveATC.Net - Listen to live air traffic control over the Internet!


ICAO: YMAV  IATA: AVV   Airport: Avalon Airport
City: Avalon   State/Province: Victoria
Country: Australia   Continent: Oceania
YMAV METAR Weather: YMAV 201000Z AUTO 11014KT //// // NCD 22/14 Q1024
YMAV Flight Activity (FlightAware)
YMAV Webcam:  (Airport Webcams) 

YMAV Del/App
Feed Status: UP   Listeners: 3
Listen in your browser - HTML5 player (in browser, HTML5)
Click here to listen with your own player (launches your MP3 player)
Archive Access: YMAV Del/App
FacilityFrequency
Avalon Clearance Delivery120.100
Melbourne Approach/Departure133.550

NOTICE

Unauthorized use prohibited. See LiveATC.net Terms of Service


Airport/ARTCC Code
Frequency Search
(e.g., 124.400, 128.75)
Site-wide search
 


Browse Feeds
Top 50 Feeds
HF Oceanic Feeds
Coverage Map
Bad Weather Areas

LiveATC FAQ
Offer LiveATC feed
Contact LiveATC.net
Press Inquiries

LiveATC on iPhone
LiveATC on Android

LiveATC Mobile
(Mobile browser)

ATC Audio Archives
Interesting Recordings

LiveATC Forums


Home Page
About LiveATC.net
Make a Donation
Terms of Use
Privacy Policy

Canadian Air Freqs

AIRMETs/SIGMETs

FAA Airport Status
NAS Status
Arrival Demand


Server Software By:
Icecast.org
Liquidsoap